Time;durP1;ratioP1;P1;durP2;ratioP2;P2;SDS_P1;SDS_P2;PMS_P1;PMS_P2;Temp;Humidity;BMP_temperature;BMP_pressure;BME280_temperature;BME280_humidity;BME280_pressure;Samples;Min_cycle;Max_cycle;Signal;HPM_P1;HPM_P2
2024/04/06 00:01:01;;;;;;;21.80;7.20;;;;;;;-147.86;100.00;-17609.17;105711;1260;72662;-44
2024/04/06 00:03:27;;;;;;;15.70;6.20;;;;;;;-147.86;100.00;-17609.17;105634;1258;61228;-48
2024/04/06 00:05:54;;;;;;;13.80;6.50;;;;;;;-147.86;100.00;-17609.17;105865;1259;61231;-46
2024/04/06 00:08:21;;;;;;;9.90;6.00;;;;;;;-147.86;100.00;-17609.17;105965;1257;74449;-53
2024/04/06 00:10:48;;;;;;;15.80;6.30;;;;;;;-147.86;100.00;-17609.17;105872;1257;64008;-48
2024/04/06 00:13:15;;;;;;;15.90;6.40;;;;;;;-147.86;100.00;-17609.17;105805;1259;72641;-50
2024/04/06 00:15:41;;;;;;;15.60;6.50;;;;;;;-147.86;100.00;-17609.17;105788;1259;61132;-48
2024/04/06 00:18:08;;;;;;;18.90;7.20;;;;;;;-147.86;100.00;-17609.17;105846;1256;61203;-45
2024/04/06 00:20:37;;;;;;;16.30;6.70;;;;;;;-147.86;100.00;-17609.17;105880;1257;74503;-43
2024/04/06 00:23:04;;;;;;;13.10;6.00;;;;;;;-147.86;100.00;-17609.17;105874;1258;65405;-43
2024/04/06 00:25:31;;;;;;;20.40;7.00;;;;;;;-147.86;100.00;-17609.17;105819;1259;73462;-45
2024/04/06 00:27:58;;;;;;;9.60;5.70;;;;;;;-147.86;100.00;-17609.17;105806;1253;61138;-42
2024/04/06 00:30:24;;;;;;;10.90;6.00;;;;;;;-147.86;100.00;-17609.17;105809;1254;61253;-45
2024/04/06 00:32:51;;;;;;;12.50;6.20;;;;;;;-147.86;100.00;-17609.17;105805;1258;75172;-43
2024/04/06 00:35:18;;;;;;;14.60;6.00;;;;;;;-147.86;100.00;-17609.17;105828;1260;64527;-44
2024/04/06 00:37:45;;;;;;;20.90;6.30;;;;;;;-147.86;100.00;-17609.17;105862;1258;72441;-46
2024/04/06 00:40:12;;;;;;;14.00;6.00;;;;;;;-147.86;100.00;-17609.17;105872;1257;61227;-45
2024/04/06 00:42:39;;;;;;;12.90;6.20;;;;;;;-147.86;100.00;-17609.17;105860;1254;61371;-46
2024/04/06 00:45:06;;;;;;;13.90;5.70;;;;;;;-147.86;100.00;-17609.17;105807;1257;74448;-43
2024/04/06 00:47:33;;;;;;;10.50;5.30;;;;;;;-147.86;100.00;-17609.17;105756;1259;65543;-48
2024/04/06 00:50:00;;;;;;;12.00;5.70;;;;;;;-147.86;100.00;-17609.17;105632;1254;72511;-43
2024/04/06 00:52:26;;;;;;;9.30;5.30;;;;;;;-147.86;100.00;-17609.17;105826;1254;61320;-46
2024/04/06 00:54:53;;;;;;;13.90;5.50;;;;;;;-147.86;100.00;-17609.17;105896;1256;61247;-43
2024/04/06 00:57:20;;;;;;;9.00;5.30;;;;;;;-147.86;100.00;-17609.17;105672;1259;74543;-43
2024/04/06 00:59:47;;;;;;;14.00;5.70;;;;;;;-147.86;100.00;-17609.17;105794;1257;65418;-45
2024/04/06 01:02:13;;;;;;;12.10;5.70;;;;;;;-147.86;100.00;-17609.17;105856;1259;71341;-43
2024/04/06 01:04:40;;;;;;;11.10;5.40;;;;;;;-147.86;100.00;-17609.17;105936;1256;61135;-46
2024/04/06 01:07:07;;;;;;;17.00;5.60;;;;;;;-147.86;100.00;-17609.17;105874;1253;62032;-43
2024/04/06 01:09:35;;;;;;;10.80;5.40;;;;;;;-147.86;100.00;-17609.17;105903;1253;74537;-45
2024/04/06 01:12:02;;;;;;;10.40;5.10;;;;;;;-147.86;100.00;-17609.17;105863;1256;65535;-45
2024/04/06 01:14:29;;;;;;;9.90;5.30;;;;;;;-147.86;100.00;-17609.17;105799;1254;72346;-45
2024/04/06 01:16:57;;;;;;;10.70;5.60;;;;;;;-147.86;100.00;-17609.17;105845;1254;61339;-48
2024/04/06 01:19:24;;;;;;;10.50;5.30;;;;;;;-147.86;100.00;-17609.17;105690;1254;61336;-45
2024/04/06 01:21:51;;;;;;;9.20;5.10;;;;;;;-147.86;100.00;-17609.17;105839;1257;74643;-45
2024/04/06 01:24:28;;;;;;;10.40;5.50;;;;;;;-147.86;100.00;-17609.17;105725;1257;65424;-45
2024/04/06 01:26:57;;;;;;;11.80;5.10;;;;;;;-147.86;100.00;-17609.17;105842;1254;71231;-47
2024/04/06 01:29:28;;;;;;;12.50;5.10;;;;;;;-147.86;100.00;-17609.17;105712;1254;61348;-45
2024/04/06 01:31:55;;;;;;;11.10;5.50;;;;;;;-147.86;100.00;-17609.17;105866;1254;61690;-44
2024/04/06 01:34:22;;;;;;;14.80;4.90;;;;;;;-147.86;100.00;-17609.17;105857;1258;74655;-47
2024/04/06 01:36:49;;;;;;;13.80;4.80;;;;;;;-147.86;100.00;-17609.17;105807;1257;65225;-43
2024/04/06 01:39:16;;;;;;;8.10;4.70;;;;;;;-147.86;100.00;-17609.17;105784;1257;72594;-46
2024/04/06 01:41:47;;;;;;;13.10;4.90;;;;;;;-147.86;100.00;-17609.17;105843;1254;61129;-45
2024/04/06 01:44:14;;;;;;;10.10;4.80;;;;;;;-147.86;100.00;-17609.17;105889;1259;61237;-43
2024/04/06 01:46:41;;;;;;;9.70;4.40;;;;;;;-147.86;100.00;-17609.17;105865;1254;74659;-43
2024/04/06 01:49:08;;;;;;;11.30;4.70;;;;;;;-147.86;100.00;-17609.17;105831;1257;65471;-46
2024/04/06 01:51:35;;;;;;;9.60;5.10;;;;;;;-147.86;100.00;-17609.17;105857;1254;72390;-47
2024/04/06 01:54:02;;;;;;;6.60;4.50;;;;;;;-147.86;100.00;-17609.17;105801;1258;61215;-46
2024/04/06 01:56:29;;;;;;;19.60;4.70;;;;;;;-147.86;100.00;-17609.17;105866;1257;61333;-47
2024/04/06 01:58:57;;;;;;;9.60;4.50;;;;;;;-147.86;100.00;-17609.17;105794;1257;74586;-47
2024/04/06 02:01:23;;;;;;;12.40;4.70;;;;;;;-147.86;100.00;-17609.17;105805;1257;65501;-48
2024/04/06 02:03:51;;;;;;;10.60;4.80;;;;;;;-147.86;100.00;-17609.17;105843;1258;72602;-48
2024/04/06 02:06:18;;;;;;;7.20;4.20;;;;;;;-147.86;100.00;-17609.17;105782;1257;61109;-45
2024/04/06 02:08:45;;;;;;;9.40;5.20;;;;;;;-147.86;100.00;-17609.17;105849;1257;61250;-43
2024/04/06 02:11:12;;;;;;;16.90;5.30;;;;;;;-147.86;100.00;-17609.17;105897;1253;74633;-46
2024/04/06 02:13:40;;;;;;;12.60;4.70;;;;;;;-147.86;100.00;-17609.17;105861;1257;65257;-45
2024/04/06 02:16:07;;;;;;;11.70;5.00;;;;;;;-147.86;100.00;-17609.17;105850;1260;72691;-47
2024/04/06 02:18:34;;;;;;;13.60;5.20;;;;;;;-147.86;100.00;-17609.17;105850;1259;61145;-45
2024/04/06 02:21:00;;;;;;;10.10;4.90;;;;;;;-147.86;100.00;-17609.17;105848;1254;61253;-47
2024/04/06 02:23:27;;;;;;;11.50;4.90;;;;;;;-147.86;100.00;-17609.17;105882;1256;74659;-47
2024/04/06 02:25:54;;;;;;;8.60;4.20;;;;;;;-147.86;100.00;-17609.17;105808;1256;65181;-45
2024/04/06 02:28:21;;;;;;;9.60;4.50;;;;;;;-147.86;100.00;-17609.17;105867;1257;72578;-46
2024/04/06 02:30:48;;;;;;;9.30;4.60;;;;;;;-147.86;100.00;-17609.17;105840;1257;61178;-45
2024/04/06 02:33:15;;;;;;;12.90;5.40;;;;;;;-147.86;100.00;-17609.17;105840;1260;61250;-48
2024/04/06 02:35:42;;;;;;;8.40;4.50;;;;;;;-147.86;100.00;-17609.17;105840;1260;73622;-45
2024/04/06 02:38:09;;;;;;;8.80;4.60;;;;;;;-147.86;100.00;-17609.17;105819;1260;65301;-43
2024/04/06 02:40:35;;;;;;;7.40;4.30;;;;;;;-147.86;100.00;-17609.17;105856;1259;73069;-47
2024/04/06 02:43:03;;;;;;;14.00;4.50;;;;;;;-147.86;100.00;-17609.17;105858;1257;61218;-47
2024/04/06 02:45:30;;;;;;;15.40;5.00;;;;;;;-147.86;100.00;-17609.17;105814;1254;61304;-50
2024/04/06 02:47:57;;;;;;;9.00;4.20;;;;;;;-147.86;100.00;-17609.17;105793;1264;74580;-43
2024/04/06 02:50:23;;;;;;;9.50;4.60;;;;;;;-147.86;100.00;-17609.17;105853;1258;64256;-47
2024/04/06 02:52:50;;;;;;;14.00;5.70;;;;;;;-147.86;100.00;-17609.17;105858;1257;71665;-48
2024/04/06 02:55:17;;;;;;;15.50;5.00;;;;;;;-147.86;100.00;-17609.17;105858;1266;61225;-47
2024/04/06 02:57:44;;;;;;;13.00;4.40;;;;;;;-147.86;100.00;-17609.17;105856;1254;61282;-48
2024/04/06 03:00:12;;;;;;;11.60;4.60;;;;;;;-147.86;100.00;-17609.17;105857;1257;74616;-49
2024/04/06 03:02:39;;;;;;;8.20;4.30;;;;;;;-147.86;100.00;-17609.17;105573;1260;64296;-49
2024/04/06 03:05:07;;;;;;;11.70;4.80;;;;;;;-147.86;100.00;-17609.17;105599;1261;72538;-48
2024/04/06 03:07:34;;;;;;;12.70;4.90;;;;;;;-147.86;100.00;-17609.17;105781;1257;61247;-48
2024/04/06 03:10:01;;;;;;;13.30;4.50;;;;;;;-147.86;100.00;-17609.17;105830;1256;61260;-45
2024/04/06 03:12:27;;;;;;;13.70;4.80;;;;;;;-147.86;100.00;-17609.17;105784;1254;74615;-47
2024/04/06 03:14:54;;;;;;;10.00;4.70;;;;;;;-147.86;100.00;-17609.17;105875;1257;65394;-47
2024/04/06 03:17:21;;;;;;;8.90;4.20;;;;;;;-147.86;100.00;-17609.17;105892;1257;72298;-46
2024/04/06 03:19:48;;;;;;;10.30;4.50;;;;;;;-147.86;100.00;-17609.17;105790;1257;61254;-45
2024/04/06 03:22:15;;;;;;;11.80;4.50;;;;;;;-147.86;100.00;-17609.17;105618;1260;343562;-47
2024/04/06 03:27:49;;;;;;;18.10;4.80;;;;;;;-147.86;100.00;-17609.17;102895;1291;603222;-43
2024/04/06 03:30:15;;;;;;;10.00;4.60;;;;;;;-147.86;100.00;-17609.17;105058;1267;59661;-43
2024/04/06 03:32:42;;;;;;;13.60;4.40;;;;;;;-147.86;100.00;-17609.17;105022;1267;60232;-46
2024/04/06 03:35:09;;;;;;;8.60;4.40;;;;;;;-147.86;100.00;-17609.17;105058;1270;72933;-48
2024/04/06 03:37:36;;;;;;;10.10;4.60;;;;;;;-147.86;100.00;-17609.17;105581;1264;65521;-44
2024/04/06 03:40:06;;;;;;;9.40;4.10;;;;;;;-147.86;100.00;-17609.17;105448;1258;239815;-43
2024/04/06 03:42:33;;;;;;;10.10;4.10;;;;;;;-147.86;100.00;-17609.17;105651;1256;60248;-46
2024/04/06 03:45:00;;;;;;;11.40;4.80;;;;;;;-147.86;100.00;-17609.17;105617;1258;60409;-46
2024/04/06 03:47:27;;;;;;;11.70;4.60;;;;;;;-147.86;100.00;-17609.17;105645;1260;72913;-43
2024/04/06 03:49:54;;;;;;;6.70;4.50;;;;;;;-147.86;100.00;-17609.17;105655;1260;65484;-48
2024/04/06 03:52:21;;;;;;;8.70;4.50;;;;;;;-147.86;100.00;-17609.17;105631;1257;72439;-45
2024/04/06 03:54:48;;;;;;;10.30;4.40;;;;;;;-147.86;100.00;-17609.17;105593;1256;61095;-47
2024/04/06 03:57:15;;;;;;;10.60;4.90;;;;;;;-147.86;100.00;-17609.17;105658;1257;60891;-44
2024/04/06 03:59:43;;;;;;;27.90;5.10;;;;;;;-147.86;100.00;-17609.17;105648;1259;73780;-43
2024/04/06 04:02:10;;;;;;;15.20;4.90;;;;;;;-147.86;100.00;-17609.17;105673;1259;65422;-44
2024/04/06 04:04:37;;;;;;;9.40;5.30;;;;;;;-147.86;100.00;-17609.17;105645;1257;72027;-45
2024/04/06 04:07:04;;;;;;;10.00;5.10;;;;;;;-147.86;100.00;-17609.17;105595;1259;60355;-45
2024/04/06 04:09:32;;;;;;;15.90;5.50;;;;;;;-147.86;100.00;-17609.17;105641;1257;60623;-47
2024/04/06 04:12:03;;;;;;;12.70;5.10;;;;;;;-147.86;100.00;-17609.17;105620;1258;73765;-44
2024/04/06 04:14:30;;;;;;;6.60;4.20;;;;;;;-147.86;100.00;-17609.17;105670;1260;65315;-45
2024/04/06 04:16:57;;;;;;;12.30;4.70;;;;;;;-147.86;100.00;-17609.17;105649;1260;72390;-47
2024/04/06 04:19:24;;;;;;;11.00;5.10;;;;;;;-147.86;100.00;-17609.17;105644;1259;60368;-48
2024/04/06 04:21:51;;;;;;;9.10;4.70;;;;;;;-147.86;100.00;-17609.17;105650;1255;60530;-46
2024/04/06 04:24:19;;;;;;;14.00;5.30;;;;;;;-147.86;100.00;-17609.17;105623;1257;73815;-46
2024/04/06 04:26:47;;;;;;;11.10;4.60;;;;;;;-147.86;100.00;-17609.17;105603;1259;65553;-44
2024/04/06 04:29:15;;;;;;;14.60;4.50;;;;;;;-147.86;100.00;-17609.17;105624;1257;71329;-45
2024/04/06 04:31:41;;;;;;;12.30;4.80;;;;;;;-147.86;100.00;-17609.17;105590;1257;60497;-45
2024/04/06 04:34:08;;;;;;;13.40;5.00;;;;;;;-147.86;100.00;-17609.17;105604;1255;60472;-45
2024/04/06 04:36:38;;;;;;;10.00;5.10;;;;;;;-147.86;100.00;-17609.17;105627;1257;72405;-45
2024/04/06 04:39:05;;;;;;;19.20;5.00;;;;;;;-147.86;100.00;-17609.17;105595;1260;65409;-42
2024/04/06 04:41:32;;;;;;;12.80;5.20;;;;;;;-147.86;100.00;-17609.17;105621;1257;72585;-46
2024/04/06 04:43:59;;;;;;;12.60;5.40;;;;;;;-147.86;100.00;-17609.17;105613;1260;60412;-43
2024/04/06 04:46:33;;;;;;;13.30;4.90;;;;;;;-147.86;100.00;-17609.17;105596;1257;60533;-43
2024/04/06 04:49:00;;;;;;;10.20;4.80;;;;;;;-147.86;100.00;-17410.63;105638;1260;73639;-47
2024/04/06 04:51:27;;;;;;;17.30;5.10;;;;;;;-147.86;100.00;-14250.88;105601;1259;65295;-48
2024/04/06 04:53:55;;;;;;;14.30;5.40;;;;;;;-147.86;98.88;-10100.12;105622;1257;72581;-47
2024/04/06 04:56:21;;;;;;;12.10;4.70;;;;;;;-147.86;97.25;-4212.41;105606;1260;61167;-43
2024/04/06 04:58:50;;;;;;;17.20;5.30;;;;;;;-147.86;96.80;246.41;105636;1256;60849;-46
2024/04/06 05:01:17;;;;;;;14.30;6.30;;;;;;;-147.86;96.92;2626.51;105589;1260;73850;-47
2024/04/06 05:03:44;;;;;;;13.90;5.30;;;;;;;-147.86;96.95;4114.88;105590;1260;65559;-49
2024/04/06 05:06:11;;;;;;;14.50;6.20;;;;;;;-147.86;96.38;6497.53;105903;1254;72387;-47
2024/04/06 05:08:38;;;;;;;15.90;5.40;;;;;;;-147.86;95.96;9179.72;105900;1256;60800;-45
2024/04/06 05:11:05;;;;;;;12.40;5.30;;;;;;;-147.86;95.69;12012.83;105899;1252;60437;-45
2024/04/06 05:13:32;;;;;;;18.00;5.60;;;;;;;-147.86;96.52;11664.77;105942;1257;73696;-48
2024/04/06 05:16:00;;;;;;;12.10;5.50;;;;;;;-147.86;96.53;11664.76;105883;1256;65405;-44
2024/04/06 05:18:28;;;;;;;12.50;5.10;;;;;;;-147.86;96.72;11714.48;105915;1254;72281;-45
2024/04/06 05:20:57;;;;;;;13.40;5.70;;;;;;;-147.86;96.35;12410.64;105928;1256;60428;-43
2024/04/06 05:23:26;;;;;;;12.30;5.50;;;;;;;-147.86;96.61;12957.67;105932;1253;60527;-44
2024/04/06 05:25:52;;;;;;;10.10;5.40;;;;;;;-147.86;96.69;12460.35;105879;1256;73836;-48
2024/04/06 05:28:20;;;;;;;21.60;6.10;;;;;;;-147.86;96.86;12858.22;105948;1256;65301;-46
2024/04/06 05:30:48;;;;;;;19.60;6.20;;;;;;;-147.86;97.54;10521.48;105963;1254;72426;-43
2024/04/06 05:33:16;;;;;;;15.50;6.40;;;;;;;-147.86;97.82;8186.04;105965;1256;61005;-45
2024/04/06 05:35:43;;;;;;;12.60;6.00;;;;;;;-147.86;97.98;6497.45;105976;1254;60549;-47
2024/04/06 05:38:10;;;;;;;15.20;6.10;;;;;;;-147.86;96.95;7788.82;105880;1256;73778;-48
2024/04/06 05:40:42;;;;;;;14.10;5.80;;;;;;;-147.86;95.37;13455.22;105885;1254;64355;-46
2024/04/06 05:43:09;;;;;;;14.00;5.80;;;;;;;-147.86;94.42;18133.82;105945;1254;72450;-47
2024/04/06 05:45:40;;;;;;;12.40;5.70;;;;;;;-147.86;93.71;22768.07;105904;1254;60454;-46
2024/04/06 05:48:07;;;;;;;13.50;6.00;;;;;;;-147.86;92.96;28094.00;105969;1256;60380;-45
2024/04/06 05:50:37;;;;;;;13.70;6.00;;;;;;;-147.86;92.77;31909.87;105916;1252;73766;-47
2024/04/06 05:53:05;;;;;;;17.20;6.30;;;;;;;-147.86;92.51;34231.78;106018;1253;65400;-47
2024/04/06 05:55:32;;;;;;;15.40;6.10;;;;;;;-147.86;92.14;36273.23;105884;1254;72466;-43
2024/04/06 05:57:59;;;;;;;20.30;6.60;;;;;;;-147.86;91.79;38067.01;105890;1257;60336;-44
2024/04/06 06:00:26;;;;;;;11.00;6.10;;;;;;;-147.86;91.61;39213.77;105902;1254;60456;-47
2024/04/06 06:02:54;;;;;;;18.40;6.20;;;;;;;-147.86;91.40;39825.23;105921;1254;73861;-45
2024/04/06 06:05:21;;;;;;;11.40;5.80;;;;;;;-147.86;90.69;40644.96;105945;1257;64502;-48
2024/04/06 06:07:48;;;;;;;12.00;6.60;;;;;;;-147.86;90.42;41128.27;105901;1254;72444;-46
2024/04/06 06:10:15;;;;;;;14.90;6.30;;;;;;;-147.86;89.89;41579.94;105930;1256;60341;-46
2024/04/06 06:12:42;;;;;;;13.90;5.80;;;;;;;-147.86;89.14;42149.49;105873;1253;60537;-48
2024/04/06 06:15:09;;;;;;;12.80;5.90;;;;;;;-147.86;88.36;42837.76;105678;1253;73735;-47
2024/04/06 06:17:36;;;;;;;14.30;6.00;;;;;;;-147.86;88.09;43349.53;105656;1256;64294;-48
2024/04/06 06:20:07;;;;;;;15.10;6.10;;;;;;;-147.86;88.72;43542.59;105725;1253;72615;-45
2024/04/06 06:22:34;;;;;;;15.00;6.20;;;;;;;-147.86;89.77;43463.88;105863;1256;60450;-49
2024/04/06 06:25:05;;;;;;;12.40;5.70;;;;;;;-147.86;88.92;43512.04;105935;1254;60613;-50
2024/04/06 06:27:32;;;;;;;12.20;6.30;;;;;;;-147.86;87.51;43936.96;105880;1254;72522;-48
2024/04/06 06:29:59;;;;;;;21.60;7.30;;;;;;;-147.86;87.72;44299.64;105905;1256;65720;-51
2024/04/06 06:32:26;;;;;;;10.90;5.30;;;;;;;-147.86;88.39;44626.71;105920;1254;72676;-48
2024/04/06 06:34:53;;;;;;;11.50;6.00;;;;;;;-147.86;89.46;44788.10;105966;1253;60723;-46
2024/04/06 06:37:20;;;;;;;9.50;5.60;;;;;;;-147.86;90.94;44700.36;105953;1253;60498;-45
2024/04/06 06:39:50;;;;;;;16.20;6.40;;;;;;;-147.86;91.99;44351.74;105854;1254;73886;-45
2024/04/06 06:42:19;;;;;;;12.20;6.20;;;;;;;-147.86;93.33;43694.54;105949;1256;64653;-50
2024/04/06 06:44:46;;;;;;;9.20;5.50;;;;;;;-147.86;92.86;43258.68;105834;1254;72609;-49
2024/04/06 06:47:13;;;;;;;14.00;5.90;;;;;;;-147.86;91.94;43258.29;105898;1256;60524;-47
2024/04/06 06:49:40;;;;;;;13.00;6.20;;;;;;;-147.86;92.12;43260.25;105928;1254;60465;-45
2024/04/06 06:52:07;;;;;;;13.70;5.60;;;;;;;-147.86;91.04;43407.09;105854;1256;73648;-47
2024/04/06 06:54:34;;;;;;;17.70;5.80;;;;;;;-147.86;89.85;43933.83;105946;1256;65177;-46
2024/04/06 06:57:01;;;;;;;11.40;5.80;;;;;;;-147.86;91.45;44297.29;105739;1254;73030;-49
2024/04/06 06:59:28;;;;;;;14.70;6.00;;;;;;;-147.86;93.33;43934.23;105691;1256;60325;-48
2024/04/06 07:02:15;;;;;;;14.30;6.90;;;;;;;-147.86;92.97;43435.68;105861;1252;60517;-54
2024/04/06 07:04:44;;;;;;;15.00;6.60;;;;;;;-147.86;91.64;43879.78;105894;1256;73843;-51
2024/04/06 07:07:12;;;;;;;10.70;5.90;;;;;;;-147.86;93.33;43866.86;105936;1256;66774;-47
2024/04/06 07:09:39;;;;;;;13.00;5.90;;;;;;;-147.86;94.00;42882.00;105891;1254;72607;-46
2024/04/06 07:12:09;;;;;;;10.00;5.70;;;;;;;-147.86;92.33;43230.49;105893;1256;60428;-48
2024/04/06 07:14:36;;;;;;;15.80;5.80;;;;;;;-147.86;93.06;43316.64;105913;1254;61500;-48
2024/04/06 07:17:03;;;;;;;12.30;5.60;;;;;;;-147.86;92.48;43240.67;105931;1253;75010;-48
2024/04/06 07:19:31;;;;;;;9.50;5.00;;;;;;;-147.86;92.57;43435.29;105929;1256;63659;-47
2024/04/06 07:21:58;;;;;;;12.10;4.90;;;;;;;-147.86;94.20;43013.18;105915;1253;71371;-48
2024/04/06 07:24:25;;;;;;;12.50;4.90;;;;;;;-147.86;93.51;42801.73;105918;1256;61519;-49
2024/04/06 07:26:52;;;;;;;13.80;4.80;;;;;;;-147.86;93.88;42889.44;105938;1254;60461;-48
2024/04/06 07:29:19;;;;;;;9.90;4.00;;;;;;;-147.86;95.63;41979.23;105901;1252;74913;-47
2024/04/06 07:31:46;;;;;;;11.60;4.80;;;;;;;-147.86;97.09;39676.65;105962;1256;64638;-44
2024/04/06 07:34:14;;;;;;;9.80;4.10;;;;;;;-147.86;96.22;38288.76;105916;1253;73848;-46
2024/04/06 07:36:41;;;;;;;11.90;4.20;;;;;;;-147.86;95.94;38534.35;105915;1254;61182;-47
2024/04/06 07:39:08;;;;;;;3.90;2.80;;;;;;;-147.86;95.84;38641.54;105883;1254;61246;-47
2024/04/06 07:41:38;;;;;;;6.70;3.10;;;;;;;-147.86;98.51;33612.64;105896;1252;76048;-48
2024/04/06 07:44:05;;;;;;;6.30;2.90;;;;;;;-147.86;97.98;28893.57;105924;1254;65286;-49
2024/04/06 07:46:32;;;;;;;3.70;3.00;;;;;;;-147.86;95.69;31786.30;105913;1254;72571;-44
2024/04/06 07:49:00;;;;;;;5.40;3.20;;;;;;;-147.86;93.46;37749.92;105896;1254;61365;-49
2024/04/06 07:51:27;;;;;;;4.50;2.90;;;;;;;-147.86;91.65;40301.07;105947;1254;61125;-49
2024/04/06 07:53:54;;;;;;;4.90;1.90;;;;;;;-147.86;92.87;41761.56;105924;1256;74561;-51
2024/04/06 07:56:21;;;;;;;5.20;2.20;;;;;;;-147.86;92.67;41558.04;105916;1254;64703;-48
2024/04/06 07:58:48;;;;;;;1.70;1.40;;;;;;;-147.86;93.30;42194.51;105950;1254;72480;-46
2024/04/06 08:01:15;;;;;;;4.50;1.40;;;;;;;-147.86;93.45;42143.62;105915;1256;61599;-47
2024/04/06 08:03:42;;;;;;;2.20;1.50;;;;;;;-147.86;94.71;42074.34;105924;1254;61234;-45
2024/04/06 08:06:09;;;;;;;2.80;1.40;;;;;;;-147.86;96.87;40057.70;105886;1254;74671;-49
2024/04/06 08:08:36;;;;;;;10.00;1.70;;;;;;;-147.86;97.05;37501.97;105884;1256;65945;-46
2024/04/06 08:11:03;;;;;;;2.80;1.80;;;;;;;-147.86;96.05;37726.00;105974;1254;73899;-47
2024/04/06 08:13:31;;;;;;;4.40;1.50;;;;;;;-147.86;95.30;38471.39;105915;1253;61337;-48
2024/04/06 08:15:57;;;;;;;1.50;1.20;;;;;;;-147.86;96.09;38286.80;105915;1254;61597;-49
2024/04/06 08:18:24;;;;;;;12.40;1.40;;;;;;;-147.86;96.66;36083.65;105943;1257;74612;-49
2024/04/06 08:20:52;;;;;;;1.60;1.10;;;;;;;-147.86;93.53;39146.17;105918;1256;65628;-47
2024/04/06 08:23:18;;;;;;;6.30;0.90;;;;;;;-147.86;92.91;40471.65;105901;1253;73057;-50
2024/04/06 08:25:48;;;;;;;7.30;1.10;;;;;;;-147.86;93.10;42600.89;105912;1256;61713;-49
2024/04/06 08:28:15;;;;;;;1.70;1.10;;;;;;;-147.86;89.76;43983.20;105779;1253;61263;-48
2024/04/06 08:30:41;;;;;;;1.00;0.80;;;;;;;-147.86;87.14;45183.00;105978;1254;74718;-46
2024/04/06 08:33:08;;;;;;;8.10;1.10;;;;;;;-147.86;88.32;45898.04;105952;1254;66773;-48
2024/04/06 08:35:37;;;;;;;1.80;1.00;;;;;;;-147.86;89.95;46055.56;105913;1253;74112;-48
2024/04/06 08:38:04;;;;;;;2.30;1.10;;;;;;;-147.86;89.17;46206.83;105885;1256;61145;-47
2024/04/06 08:40:31;;;;;;;1.80;1.20;;;;;;;-147.86;88.14;46442.74;105947;1253;61453;-45
2024/04/06 08:43:02;;;;;;;6.20;1.40;;;;;;;-147.86;87.84;46679.46;105671;1258;74590;-50
2024/04/06 08:45:29;;;;;;;2.50;1.20;;;;;;;-147.86;89.69;46857.00;105843;1252;65672;-50
2024/04/06 08:47:56;;;;;;;4.40;1.40;;;;;;;-147.86;89.45;46743.73;105912;1254;73890;-49
2024/04/06 08:50:23;;;;;;;2.20;1.10;;;;;;;-147.86;88.04;46966.74;105910;1256;61093;-51
2024/04/06 08:52:52;;;;;;;8.50;1.00;;;;;;;-147.86;91.26;46991.83;105833;1257;61102;-48
2024/04/06 08:55:19;;;;;;;1.30;1.00;;;;;;;-147.86;88.74;46887.18;105905;1252;75115;-53
2024/04/06 08:57:46;;;;;;;2.90;1.00;;;;;;;-147.86;88.12;47076.88;105797;1257;64818;-48
2024/04/06 09:00:14;;;;;;;2.80;1.00;;;;;;;-147.86;87.78;47255.23;105722;1254;74079;-48
2024/04/06 09:02:40;;;;;;;1.50;0.60;;;;;;;-147.86;86.06;47383.80;105977;1256;61148;-54
2024/04/06 09:05:07;;;;;;;4.50;1.00;;;;;;;-147.86;85.29;47538.64;105928;1253;62019;-47
2024/04/06 09:07:34;;;;;;;2.30;1.00;;;;;;;-147.86;81.71;47633.90;105918;1254;76163;-50
2024/04/06 09:10:01;;;;;;;2.30;0.90;;;;;;;-147.86;81.87;47810.31;105912;1256;65861;-50
2024/04/06 09:12:29;;;;;;;4.00;1.10;;;;;;;-147.86;79.71;47900.87;105937;1253;74033;-47
2024/04/06 09:14:56;;;;;;;1.60;1.00;;;;;;;-147.86;71.90;47984.38;105913;1253;61129;-47
2024/04/06 09:17:23;;;;;;;2.70;0.70;;;;;;;-147.86;73.68;48128.27;105988;1253;61517;-47
2024/04/06 09:19:50;;;;;;;3.20;0.80;;;;;;;-147.86;71.28;48214.13;105915;1255;76427;-49
2024/04/06 09:22:18;;;;;;;3.10;0.70;;;;;;;-147.86;72.97;48306.66;105982;1256;66835;-47
2024/04/06 09:24:45;;;;;;;3.40;0.90;;;;;;;-147.86;68.71;48354.49;105872;1254;73676;-51
2024/04/06 09:27:13;;;;;;;3.60;1.10;;;;;;;-147.86;67.83;48418.01;105912;1253;61173;-50
2024/04/06 09:29:46;;;;;;;3.90;0.70;;;;;;;-147.86;66.79;48479.57;105955;1255;61803;-48
2024/04/06 09:32:16;;;;;;;5.50;1.00;;;;;;;-147.86;65.47;48518.78;105899;1254;75079;-48
2024/04/06 09:34:53;;;;;;;4.80;0.80;;;;;;;-147.86;62.25;48520.35;105940;1254;66101;-46
2024/04/06 09:37:28;;;;;;;4.20;1.00;;;;;;;-147.86;63.80;48531.72;105919;1254;73807;-51
2024/04/06 09:39:55;;;;;;;1.30;0.70;;;;;;;-147.86;62.09;48522.70;105933;1253;61494;-47
2024/04/06 09:42:23;;;;;;;2.10;0.80;;;;;;;-147.86;58.01;48501.53;105938;1254;61561;-47
2024/04/06 09:44:49;;;;;;;2.00;0.90;;;;;;;-147.86;54.72;48530.93;105800;1254;75876;-48
2024/04/06 09:47:16;;;;;;;3.90;0.80;;;;;;;-147.86;55.56;48541.52;105921;1256;64847;-51
2024/04/06 09:49:44;;;;;;;1.80;0.80;;;;;;;-147.86;55.54;48566.62;105742;1254;73797;-49
2024/04/06 09:52:11;;;;;;;2.40;0.70;;;;;;;-147.86;53.06;48568.58;105776;1257;61708;-46
2024/04/06 09:54:38;;;;;;;2.20;1.10;;;;;;;-147.86;52.01;48565.05;105690;1254;61669;-49
2024/04/06 09:57:06;;;;;;;2.10;0.90;;;;;;;-147.86;51.31;48556.42;105870;1256;74696;-49
2024/04/06 09:59:33;;;;;;;3.10;1.00;;;;;;;-147.86;51.72;48508.59;105987;1256;64745;-48
2024/04/06 10:02:01;;;;;;;3.90;1.10;;;;;;;-147.86;53.86;48480.74;105952;1256;73037;-51
2024/04/06 10:04:34;;;;;;;2.80;1.00;;;;;;;-147.86;55.43;48438.79;105924;1253;61510;-50
2024/04/06 10:07:05;;;;;;;2.80;1.40;;;;;;;-147.86;59.38;48437.62;105944;1256;61167;-49
2024/04/06 10:09:35;;;;;;;4.30;1.00;;;;;;;-147.86;62.73;48428.59;105913;1256;75837;-45
2024/04/06 10:12:03;;;;;;;2.50;1.30;;;;;;;-147.86;63.93;48433.70;105929;1254;66181;-48
2024/04/06 10:14:30;;;;;;;2.60;0.80;;;;;;;-147.86;63.50;48428.99;105898;1257;74108;-51
2024/04/06 10:17:14;;;;;;;3.00;1.20;;;;;;;-147.86;64.14;48414.87;105947;1254;61561;-47
2024/04/06 10:19:43;;;;;;;1.40;1.00;;;;;;;-147.86;67.14;48430.55;105931;1252;61681;-46
2024/04/06 10:22:11;;;;;;;2.30;0.90;;;;;;;-147.86;68.00;48439.97;105836;1254;74369;-52
2024/04/06 10:24:38;;;;;;;1.60;1.20;;;;;;;-147.86;67.72;48436.44;105724;1257;66896;-55
2024/04/06 10:27:14;;;;;;;3.40;1.00;;;;;;;-147.86;66.97;48435.26;105946;1256;73816;-54
2024/04/06 10:29:41;;;;;;;6.10;1.20;;;;;;;-147.86;66.65;48440.75;105914;1254;61323;-52
2024/04/06 10:32:08;;;;;;;3.70;1.10;;;;;;;-147.86;67.78;48460.36;105949;1256;61153;-46
2024/04/06 10:34:35;;;;;;;2.60;1.40;;;;;;;-147.86;69.25;48533.29;105901;1252;76043;-48
2024/04/06 10:37:16;;;;;;;3.00;1.10;;;;;;;-147.86;64.93;48554.07;105911;1256;65982;-47
2024/04/06 10:39:45;;;;;;;8.70;1.30;;;;;;;-147.86;59.06;48553.29;105900;1254;73881;-51
2024/04/06 10:42:12;;;;;;;1.20;1.00;;;;;;;-147.86;57.32;48510.94;105770;1257;61519;-49
2024/04/06 10:44:40;;;;;;;2.50;1.20;;;;;;;-147.86;59.28;48477.61;105850;1254;61265;-48
2024/04/06 10:47:10;;;;;;;2.00;1.30;;;;;;;-147.86;61.91;48486.24;105921;1256;76121;-50
2024/04/06 10:49:38;;;;;;;1.60;1.20;;;;;;;-147.86;60.32;48457.22;105962;1256;66165;-49
2024/04/06 10:52:08;;;;;;;2.30;1.40;;;;;;;-147.86;62.69;48457.61;105863;1254;74112;-46
2024/04/06 10:54:35;;;;;;;7.10;1.30;;;;;;;-147.86;60.87;48441.93;105772;1256;61499;-47
2024/04/06 10:57:05;;;;;;;2.60;1.30;;;;;;;-147.86;61.92;48423.50;105879;1254;61476;-51
2024/04/06 10:59:32;;;;;;;2.50;1.10;;;;;;;-147.86;62.73;48427.81;105777;1253;76102;-46
2024/04/06 11:01:59;;;;;;;3.90;0.80;;;;;;;-147.86;62.93;48430.56;105719;1257;66797;-48
2024/04/06 11:04:27;;;;;;;6.20;1.30;;;;;;;-147.86;63.73;48447.02;105929;1254;71556;-47